createdAt,value
2018-08-13T00:01:46.423Z,99.50
2018-08-13T00:04:14.926Z,99.80
2018-08-13T00:06:43.408Z,99.90
2018-08-13T00:09:11.966Z,99.90
2018-08-13T00:11:40.490Z,99.60
2018-08-13T00:14:08.970Z,99.90
2018-08-13T00:16:37.466Z,99.30
2018-08-13T00:19:06.212Z,99.70
2018-08-13T00:21:34.696Z,99.80
2018-08-13T00:24:04.061Z,99.70
2018-08-13T00:26:32.517Z,99.90
2018-08-13T00:29:00.989Z,99.70
2018-08-13T00:31:29.501Z,99.30
2018-08-13T00:33:57.973Z,99.20
2018-08-13T00:36:26.435Z,99.20
2018-08-13T00:38:54.946Z,99.90
2018-08-13T00:41:23.447Z,99.90
2018-08-13T00:43:51.938Z,99.90
2018-08-13T00:46:20.460Z,99.40
2018-08-13T00:48:48.903Z,99.20
2018-08-13T00:51:17.467Z,99.60
2018-08-13T00:53:45.932Z,99.60
2018-08-13T00:56:14.380Z,99.90
2018-08-13T00:58:42.888Z,98.80
2018-08-13T01:01:11.384Z,98.70
2018-08-13T01:03:39.909Z,98.90
2018-08-13T01:06:08.356Z,98.60
2018-08-13T01:08:36.840Z,97.90
2018-08-13T01:11:05.350Z,97.20
2018-08-13T01:13:33.864Z,97.30
2018-08-13T01:16:02.336Z,96.80
2018-08-13T01:18:30.824Z,96.90
2018-08-13T01:20:59.285Z,95.70
2018-08-13T01:23:27.773Z,96.50
2018-08-13T01:25:56.252Z,95.80
2018-08-13T01:28:24.728Z,95.60
2018-08-13T01:30:53.228Z,94.60
2018-08-13T01:33:21.692Z,93.80
2018-08-13T01:35:50.171Z,94.30
2018-08-13T01:38:18.656Z,95.70
2018-08-13T01:40:47.108Z,95.50
2018-08-13T01:43:15.560Z,94.80
2018-08-13T01:45:44.093Z,94.60
2018-08-13T01:48:12.519Z,94.10
2018-08-13T01:50:40.949Z,94.00
2018-08-13T01:53:10.037Z,93.80
2018-08-13T01:55:39.009Z,93.10
2018-08-13T01:58:07.532Z,93.40
2018-08-13T02:00:36.077Z,92.80
2018-08-13T02:03:04.844Z,93.80
2018-08-13T02:05:33.349Z,91.70
2018-08-13T02:08:01.977Z,90.80
2018-08-13T02:10:30.848Z,90.10
2018-08-13T02:12:59.356Z,89.10
2018-08-13T02:15:29.030Z,88.30
2018-08-13T02:17:57.516Z,87.70
2018-08-13T02:20:26.009Z,87.40
2018-08-13T02:22:54.484Z,87.50
2018-08-13T02:25:22.979Z,86.90
2018-08-13T02:27:51.457Z,86.20
2018-08-13T02:30:19.942Z,85.90
2018-08-13T02:32:48.455Z,85.50
2018-08-13T02:35:16.949Z,85.40
2018-08-13T02:37:45.470Z,85.90
2018-08-13T02:40:13.967Z,84.90
2018-08-13T02:42:42.503Z,84.60
2018-08-13T02:45:11.449Z,84.10
2018-08-13T02:47:39.947Z,84.20
2018-08-13T02:50:11.268Z,85.30
2018-08-13T02:52:40.096Z,87.00
2018-08-13T02:55:09.410Z,89.70
2018-08-13T02:57:37.938Z,90.80
2018-08-13T03:00:07.680Z,91.40
2018-08-13T03:02:36.193Z,91.80
2018-08-13T03:05:06.701Z,93.00
2018-08-13T03:07:35.168Z,94.30
2018-08-13T03:10:04.784Z,94.40
2018-08-13T03:12:33.256Z,96.20
2018-08-13T03:15:01.782Z,96.80
2018-08-13T03:17:32.436Z,96.80
2018-08-13T03:20:01.760Z,98.40
2018-08-13T03:22:31.057Z,98.70
2018-08-13T03:25:00.772Z,99.90
2018-08-13T03:27:29.660Z,99.90
2018-08-13T03:29:59.125Z,99.90
2018-08-13T03:32:27.624Z,99.90
2018-08-13T03:34:56.182Z,99.90
2018-08-13T03:37:24.640Z,99.90
2018-08-13T03:39:53.124Z,99.90
2018-08-13T03:42:21.623Z,99.90
2018-08-13T03:44:50.137Z,99.90
2018-08-13T03:47:18.631Z,99.90
2018-08-13T03:49:47.104Z,99.90
2018-08-13T03:52:15.605Z,99.90
2018-08-13T03:54:44.089Z,99.90
2018-08-13T03:57:12.632Z,99.90
2018-08-13T03:59:41.114Z,99.90
2018-08-13T04:02:09.596Z,99.90
2018-08-13T04:04:38.110Z,99.90
2018-08-13T04:07:06.837Z,99.90
2018-08-13T04:09:35.397Z,99.90
2018-08-13T04:12:03.934Z,99.90
2018-08-13T04:14:32.423Z,99.90
2018-08-13T04:17:02.017Z,99.90
2018-08-13T04:19:31.913Z,99.90
2018-08-13T04:22:01.133Z,99.90
2018-08-13T04:24:29.752Z,99.90
2018-08-13T04:26:58.827Z,99.90
2018-08-13T04:29:27.390Z,99.90
2018-08-13T04:31:55.851Z,99.90
2018-08-13T04:34:24.327Z,99.90
2018-08-13T04:36:52.780Z,99.90
2018-08-13T04:39:21.232Z,99.90
2018-08-13T04:41:49.799Z,99.90
2018-08-13T04:44:18.256Z,99.90
2018-08-13T04:46:46.745Z,99.90
2018-08-13T04:49:15.253Z,99.90
2018-08-13T04:51:43.763Z,99.90
2018-08-13T04:54:12.268Z,99.90
2018-08-13T04:56:40.720Z,99.90
2018-08-13T04:59:09.200Z,99.90
2018-08-13T05:01:37.723Z,99.90
2018-08-13T05:04:06.338Z,99.90
2018-08-13T05:06:34.842Z,99.90
2018-08-13T05:09:03.640Z,99.90
2018-08-13T05:11:32.160Z,99.90
2018-08-13T05:14:00.630Z,99.90
2018-08-13T05:16:29.100Z,99.90
2018-08-13T05:18:57.617Z,99.90
2018-08-13T05:21:26.080Z,99.90
2018-08-13T05:23:54.556Z,99.90
2018-08-13T05:26:23.068Z,99.90
2018-08-13T05:28:51.552Z,99.90
2018-08-13T05:31:20.049Z,99.90
2018-08-13T05:33:48.533Z,99.90
2018-08-13T05:36:16.994Z,99.90
2018-08-13T05:38:45.464Z,99.90
2018-08-13T05:41:13.921Z,99.90
2018-08-13T05:43:42.412Z,99.90
2018-08-13T05:46:10.877Z,99.90
2018-08-13T05:48:39.377Z,99.90
2018-08-13T05:51:07.910Z,99.90
2018-08-13T05:53:36.386Z,99.90
2018-08-13T05:56:04.957Z,99.90
2018-08-13T05:58:33.461Z,99.90
2018-08-13T06:01:02.058Z,99.90
2018-08-13T06:03:30.603Z,99.90
2018-08-13T06:05:59.100Z,99.90
2018-08-13T06:08:27.586Z,99.90
2018-08-13T06:10:56.224Z,99.90
2018-08-13T06:13:24.749Z,99.90
2018-08-13T06:15:53.370Z,99.90
2018-08-13T06:18:21.890Z,99.90
2018-08-13T06:20:50.408Z,99.90
2018-08-13T06:23:18.919Z,99.90
2018-08-13T06:25:47.398Z,99.90
2018-08-13T06:28:16.005Z,99.90
2018-08-13T06:30:44.537Z,99.90
2018-08-13T06:33:13.013Z,99.90
2018-08-13T06:35:41.505Z,99.90
2018-08-13T06:38:09.995Z,99.90
2018-08-13T06:40:38.505Z,99.90
2018-08-13T06:43:07.021Z,99.90
2018-08-13T06:45:35.492Z,99.90
2018-08-13T06:48:04.047Z,99.90
2018-08-13T06:50:32.560Z,99.90
2018-08-13T06:53:01.737Z,99.90
2018-08-13T06:55:30.203Z,99.90
2018-08-13T06:57:58.720Z,99.90
2018-08-13T07:00:27.217Z,99.90
2018-08-13T07:02:55.719Z,99.90
2018-08-13T07:05:24.228Z,99.90
2018-08-13T07:07:53.296Z,99.90
2018-08-13T07:10:21.824Z,99.90
2018-08-13T07:12:50.399Z,99.90
2018-08-13T07:15:18.910Z,99.90
2018-08-13T07:17:47.497Z,99.90
2018-08-13T07:20:17.199Z,99.90
2018-08-13T07:22:45.867Z,99.90
2018-08-13T07:25:14.432Z,99.90
2018-08-13T07:27:43.029Z,99.90
2018-08-13T07:30:13.068Z,99.90
2018-08-13T07:32:41.825Z,99.90
2018-08-13T07:35:10.428Z,99.90
2018-08-13T07:37:38.897Z,99.90
2018-08-13T07:40:10.242Z,99.90
2018-08-13T07:42:38.764Z,99.90
2018-08-13T07:45:07.812Z,99.90
2018-08-13T07:47:36.446Z,99.90
2018-08-13T07:50:06.109Z,99.90
2018-08-13T07:52:34.646Z,99.90
2018-08-13T07:55:03.246Z,99.90
2018-08-13T07:57:31.752Z,99.90
2018-08-13T08:00:00.346Z,99.90
2018-08-13T08:02:28.865Z,99.90
2018-08-13T08:04:57.345Z,99.90
2018-08-13T08:07:25.885Z,99.90
2018-08-13T08:09:54.372Z,99.90
2018-08-13T08:12:22.902Z,99.90
2018-08-13T08:14:51.428Z,99.90
2018-08-13T08:17:19.909Z,99.90
2018-08-13T08:19:48.444Z,99.90
2018-08-13T08:22:17.038Z,99.90
2018-08-13T08:24:45.524Z,99.90
2018-08-13T08:27:14.017Z,99.90
2018-08-13T08:29:42.504Z,99.90
2018-08-13T08:32:10.961Z,99.90
2018-08-13T08:34:39.585Z,99.90
2018-08-13T08:37:08.065Z,99.90
2018-08-13T08:39:36.568Z,99.90
2018-08-13T08:42:05.100Z,99.90
2018-08-13T08:44:33.591Z,99.90
2018-08-13T08:47:02.067Z,99.90
2018-08-13T08:49:30.572Z,99.90
2018-08-13T08:51:59.063Z,99.90
2018-08-13T08:54:27.543Z,99.90
2018-08-13T08:56:56.045Z,99.90
2018-08-13T08:59:24.559Z,99.90
2018-08-13T09:01:53.093Z,99.90
2018-08-13T09:04:21.631Z,99.90
2018-08-13T09:06:50.119Z,99.90
2018-08-13T09:09:18.568Z,99.90
2018-08-13T09:11:47.092Z,99.90
2018-08-13T09:14:15.650Z,99.90
2018-08-13T09:16:46.807Z,99.90
2018-08-13T09:19:26.604Z,99.90
2018-08-13T09:22:04.104Z,99.90
2018-08-13T09:24:43.859Z,99.90
2018-08-13T09:27:23.690Z,99.90
2018-08-13T09:30:03.411Z,99.90
2018-08-13T09:32:43.103Z,99.90
2018-08-13T09:35:18.877Z,99.90
2018-08-13T09:37:47.388Z,99.90
2018-08-13T09:40:15.921Z,99.90
2018-08-13T09:42:44.412Z,99.90
2018-08-13T09:45:12.882Z,99.90
2018-08-13T09:47:41.387Z,99.90
2018-08-13T09:50:12.191Z,99.90
2018-08-13T09:52:40.680Z,99.90
2018-08-13T09:55:09.235Z,99.90
2018-08-13T09:57:37.752Z,99.90
2018-08-13T10:00:11.739Z,99.90
2018-08-13T10:02:40.190Z,99.90
2018-08-13T10:05:08.693Z,99.90
2018-08-13T10:07:37.178Z,99.90
2018-08-13T10:10:12.798Z,99.90
2018-08-13T10:12:42.235Z,99.90
2018-08-13T10:15:11.536Z,99.90
2018-08-13T10:17:40.129Z,99.90
2018-08-13T10:20:11.348Z,99.90
2018-08-13T10:22:39.789Z,99.90
2018-08-13T10:25:08.841Z,99.90
2018-08-13T10:27:37.491Z,99.90
2018-08-13T10:30:07.859Z,99.90
2018-08-13T10:32:36.509Z,99.90
2018-08-13T10:35:05.692Z,99.90
2018-08-13T10:37:34.200Z,99.90
2018-08-13T10:40:02.693Z,99.90
2018-08-13T10:42:31.189Z,99.90
2018-08-13T10:44:59.701Z,99.90
2018-08-13T10:47:28.211Z,99.90
2018-08-13T10:49:56.708Z,99.90
2018-08-13T10:52:25.184Z,99.90
2018-08-13T10:54:53.716Z,99.90
2018-08-13T10:57:22.260Z,99.90
2018-08-13T10:59:50.771Z,99.90
2018-08-13T11:02:19.291Z,99.90
2018-08-13T11:04:47.745Z,99.90
2018-08-13T11:07:16.302Z,99.90
2018-08-13T11:09:44.809Z,99.90
2018-08-13T11:12:13.392Z,99.90
2018-08-13T11:14:41.946Z,99.90
2018-08-13T11:17:10.480Z,99.90
2018-08-13T11:19:38.960Z,99.90
2018-08-13T11:22:07.457Z,99.90
2018-08-13T11:24:35.953Z,99.90
2018-08-13T11:27:05.040Z,99.90
2018-08-13T11:29:33.562Z,99.90
2018-08-13T11:32:02.092Z,99.90
2018-08-13T11:34:30.528Z,99.90
2018-08-13T11:36:59.016Z,99.90
2018-08-13T11:39:27.488Z,99.90
2018-08-13T11:41:55.997Z,99.90
2018-08-13T11:44:24.491Z,99.90
2018-08-13T11:46:52.948Z,99.90
2018-08-13T11:49:21.418Z,99.90
2018-08-13T11:51:49.876Z,99.90
2018-08-13T11:54:18.369Z,99.90
2018-08-13T11:56:46.859Z,99.90
2018-08-13T11:59:15.345Z,99.90
2018-08-13T12:01:43.881Z,99.90
2018-08-13T12:04:12.426Z,99.90
2018-08-13T12:06:40.886Z,99.90
2018-08-13T12:09:11.540Z,99.90
2018-08-13T12:11:40.210Z,99.90
2018-08-13T12:14:08.761Z,99.90
2018-08-13T12:16:37.580Z,99.90
2018-08-13T12:19:06.197Z,99.90
2018-08-13T12:21:34.758Z,99.90
2018-08-13T12:24:03.411Z,99.90
2018-08-13T12:26:32.030Z,99.90
2018-08-13T12:29:00.499Z,99.90
2018-08-13T12:31:28.999Z,99.90
2018-08-13T12:33:57.478Z,99.90
2018-08-13T12:36:25.949Z,99.90
2018-08-13T12:38:54.442Z,99.90
2018-08-13T12:41:22.913Z,99.90
2018-08-13T12:43:51.384Z,99.90
2018-08-13T12:46:19.889Z,99.90
2018-08-13T12:48:48.392Z,99.90
2018-08-13T12:51:16.886Z,99.90
2018-08-13T12:53:45.357Z,99.90
2018-08-13T12:56:13.848Z,99.90
2018-08-13T12:58:42.308Z,99.90
2018-08-13T13:01:11.540Z,99.90
2018-08-13T13:03:40.731Z,99.90
2018-08-13T13:06:09.264Z,99.90
2018-08-13T13:08:37.853Z,99.90
2018-08-13T13:11:06.391Z,99.90
2018-08-13T13:13:34.878Z,99.90
2018-08-13T13:16:03.437Z,99.90
2018-08-13T13:18:32.064Z,99.90
2018-08-13T13:21:00.576Z,99.90
2018-08-13T13:23:29.275Z,99.90
2018-08-13T13:25:57.869Z,99.90
2018-08-13T13:28:26.337Z,99.90
2018-08-13T13:30:54.856Z,99.90
2018-08-13T13:33:23.416Z,99.90
2018-08-13T13:35:51.883Z,99.90
2018-08-13T13:38:20.460Z,99.90
2018-08-13T13:40:49.010Z,99.90
2018-08-13T13:43:17.547Z,99.90
2018-08-13T13:45:46.064Z,99.90
2018-08-13T13:48:14.557Z,99.90
2018-08-13T13:50:43.081Z,99.90
2018-08-13T13:53:11.604Z,99.90
2018-08-13T13:55:40.096Z,99.90
2018-08-13T13:58:08.700Z,99.90
2018-08-13T14:00:37.241Z,99.90
2018-08-13T14:03:05.771Z,99.90
2018-08-13T14:05:34.314Z,99.90
2018-08-13T14:08:02.873Z,99.90
2018-08-13T14:10:31.332Z,99.90
2018-08-13T14:12:59.905Z,99.90
2018-08-13T14:15:28.452Z,99.90
2018-08-13T14:17:56.946Z,99.90
2018-08-13T14:20:25.525Z,99.90
2018-08-13T14:22:54.033Z,99.90
2018-08-13T14:25:22.548Z,99.90
2018-08-13T14:27:51.070Z,99.90
2018-08-13T14:30:22.826Z,99.90
2018-08-13T14:32:51.409Z,99.90
2018-08-13T14:35:20.959Z,99.90
2018-08-13T14:37:49.557Z,99.90
2018-08-13T14:40:18.102Z,99.90
2018-08-13T14:42:46.696Z,99.90
2018-08-13T14:45:16.411Z,99.90
2018-08-13T14:47:46.220Z,99.90
2018-08-13T14:50:14.996Z,99.90
2018-08-13T14:52:45.601Z,99.90
2018-08-13T14:55:15.395Z,99.90
2018-08-13T14:57:43.878Z,99.90
2018-08-13T15:00:20.410Z,99.90
2018-08-13T15:02:49.331Z,99.90
2018-08-13T15:05:18.249Z,99.90
2018-08-13T15:07:46.817Z,99.90
